Arkadelphia, AR (71923)

5:57 PM CST on January 24, 2017 (GMT -0600)
Florence Mem AP, Arkadelphia, | | Change Station

Elev 184 ft 34.10 °N, 93.07 °W | Updated 1 hour ago

Clear
Clear
66 °F
Feels Like 66 °F
N
4
Wind Variable Wind from SSE

Today
High -- | Low -- °F
--% Chance of Precip.
Yesterday
High -- | Low -- °F
Precip. -- in
Pressure 29.70 in
Visibility 10.0 miles
Clouds Clear
Dew Point 50 °F
Humidity 56%
Rainfall 0.00 in
Snow Depth Not available.
7:14 AM 5:35 PM
Waning Crescent, 9% visible
METAR KADF 242256Z AUTO 15003KT 10SM CLR 19/10 A2968 RMK AO2 SLP056 T01890100
Pressure 29.70 in
Visibility 10.0 miles
Clouds Clear
Dew Point 50 °F
Humidity 56%
Rainfall 0.00 in
Snow Depth Not available.
7:14 AM 5:35 PM
Waning Crescent, 9% visible
METAR KADF 242256Z AUTO 15003KT 10SM CLR 19/10 A2968 RMK AO2 SLP056 T01890100

Get Your Daily Forecast Email!

Thanks for signing up!

Be on the lookout for a verification email in your inbox.

You'll start receiving the daily forecast at 8 AM.

×

10-Day Weather Forecast

Almanac

Astronomy

Jan. 24, 2017 Rise Set
Actual Time
Civil Twilight
Nautical Twilight
Astronomical Twilight
Moon
Length of Visible Light
Length of Day
Tomorrow will be .
, % of the Moon is Illuminated

Today's Extremes

State Highs State Lows

Community

WunderPhotos

Upload Photos

1,962,540 photos uploaded!

WunderBlog® & News

Nearby

Air Quality

  Air Quality AQ Index Pollutant
Not available.

Snow Depth

Station Depth Elevation

Earthquake Activity

City Distance Mag. Time & Date
Minimum magnitude displayed is 2.5.

Coastal Water Temperatures

Place Temperature

Stations

Nearby Weather Stations

Station Location Temp. Windchill Dew Point Humidity Wind Precip. Elev Updated Type
                   

Watches & Warnings

There are currently no watches in effect.